sensor_id;sensor_type;location;lat;lon;timestamp;temperature;humidity
1411;DHT22;700;51.906;8.404;2023-01-19T00:02:19;2.80;99.90
1411;DHT22;700;51.906;8.404;2023-01-19T00:07:20;2.70;99.90
1411;DHT22;700;51.906;8.404;2023-01-19T00:12:20;2.80;99.90
1411;DHT22;700;51.906;8.404;2023-01-19T00:17:23;3.10;99.90
1411;DHT22;700;51.906;8.404;2023-01-19T00:22:24;3.10;99.90
1411;DHT22;700;51.906;8.404;2023-01-19T00:27:24;3.10;99.90
1411;DHT22;700;51.906;8.404;2023-01-19T00:32:25;2.80;99.90
1411;DHT22;700;51.906;8.404;2023-01-19T00:37:28;3.00;99.90
1411;DHT22;700;51.906;8.404;2023-01-19T00:42:29;3.00;99.90
1411;DHT22;700;51.906;8.404;2023-01-19T00:47:44;3.00;99.90
1411;DHT22;700;51.906;8.404;2023-01-19T00:52:44;3.00;99.90
1411;DHT22;700;51.906;8.404;2023-01-19T00:57:45;2.70;99.90
1411;DHT22;700;51.906;8.404;2023-01-19T01:02:47;2.70;99.90
1411;DHT22;700;51.906;8.404;2023-01-19T01:07:48;2.90;99.90
1411;DHT22;700;51.906;8.404;2023-01-19T01:12:50;2.90;99.90
1411;DHT22;700;51.906;8.404;2023-01-19T01:17:51;2.70;99.90
1411;DHT22;700;51.906;8.404;2023-01-19T01:22:55;2.70;99.90
1411;DHT22;700;51.906;8.404;2023-01-19T01:27:56;2.70;99.90
1411;DHT22;700;51.906;8.404;2023-01-19T01:32:59;2.60;99.90
1411;DHT22;700;51.906;8.404;2023-01-19T01:38:00;2.70;99.90
1411;DHT22;700;51.906;8.404;2023-01-19T01:43:03;2.80;99.90
1411;DHT22;700;51.906;8.404;2023-01-19T01:53:15;3.30;99.90
1411;DHT22;700;51.906;8.404;2023-01-19T01:58:15;3.30;99.90
1411;DHT22;700;51.906;8.404;2023-01-19T02:03:18;3.20;99.90
1411;DHT22;700;51.906;8.404;2023-01-19T02:14:04;3.00;99.90
1411;DHT22;700;51.906;8.404;2023-01-19T02:19:11;3.40;99.90
1411;DHT22;700;51.906;8.404;2023-01-19T02:24:13;3.50;99.90
1411;DHT22;700;51.906;8.404;2023-01-19T02:29:16;3.40;99.90
1411;DHT22;700;51.906;8.404;2023-01-19T02:34:20;3.50;99.90
1411;DHT22;700;51.906;8.404;2023-01-19T02:39:35;3.60;99.90
1411;DHT22;700;51.906;8.404;2023-01-19T02:44:39;3.60;99.90
1411;DHT22;700;51.906;8.404;2023-01-19T02:49:42;3.60;99.90
1411;DHT22;700;51.906;8.404;2023-01-19T03:00:20;3.60;99.90
1411;DHT22;700;51.906;8.404;2023-01-19T03:11:07;3.20;99.90
1411;DHT22;700;51.906;8.404;2023-01-19T03:21:10;3.40;99.90
1411;DHT22;700;51.906;8.404;2023-01-19T03:26:18;3.50;99.90
1411;DHT22;700;51.906;8.404;2023-01-19T03:31:23;3.60;99.90
1411;DHT22;700;51.906;8.404;2023-01-19T03:36:32;3.70;99.90
1411;DHT22;700;51.906;8.404;2023-01-19T03:41:35;3.80;99.90
1411;DHT22;700;51.906;8.404;2023-01-19T03:46:39;3.80;99.90
1411;DHT22;700;51.906;8.404;2023-01-19T03:51:40;3.70;99.90
1411;DHT22;700;51.906;8.404;2023-01-19T03:56:45;3.90;99.90
1411;DHT22;700;51.906;8.404;2023-01-19T04:01:49;3.70;99.90
1411;DHT22;700;51.906;8.404;2023-01-19T04:06:49;3.50;99.90
1411;DHT22;700;51.906;8.404;2023-01-19T04:11:50;3.60;99.90
1411;DHT22;700;51.906;8.404;2023-01-19T04:16:52;3.80;99.90
1411;DHT22;700;51.906;8.404;2023-01-19T04:21:54;4.00;99.90
1411;DHT22;700;51.906;8.404;2023-01-19T04:26:56;4.00;99.90
1411;DHT22;700;51.906;8.404;2023-01-19T04:31:59;3.90;99.90
1411;DHT22;700;51.906;8.404;2023-01-19T04:37:01;3.90;99.90
1411;DHT22;700;51.906;8.404;2023-01-19T04:42:02;4.10;99.90
1411;DHT22;700;51.906;8.404;2023-01-19T04:47:03;3.90;99.90
1411;DHT22;700;51.906;8.404;2023-01-19T04:52:04;4.10;99.90
1411;DHT22;700;51.906;8.404;2023-01-19T04:57:07;4.30;99.90
1411;DHT22;700;51.906;8.404;2023-01-19T05:02:07;4.10;99.90
1411;DHT22;700;51.906;8.404;2023-01-19T05:07:08;3.80;99.90
1411;DHT22;700;51.906;8.404;2023-01-19T05:12:09;4.00;99.90
1411;DHT22;700;51.906;8.404;2023-01-19T05:17:11;4.10;99.90
1411;DHT22;700;51.906;8.404;2023-01-19T05:22:14;3.90;99.90
1411;DHT22;700;51.906;8.404;2023-01-19T05:27:15;4.30;99.90
1411;DHT22;700;51.906;8.404;2023-01-19T05:32:15;4.10;99.90
1411;DHT22;700;51.906;8.404;2023-01-19T05:37:18;4.30;99.90
1411;DHT22;700;51.906;8.404;2023-01-19T05:42:20;4.30;99.90
1411;DHT22;700;51.906;8.404;2023-01-19T05:47:25;4.20;99.90
1411;DHT22;700;51.906;8.404;2023-01-19T05:52:25;4.30;99.90
1411;DHT22;700;51.906;8.404;2023-01-19T05:57:26;4.20;99.90
1411;DHT22;700;51.906;8.404;2023-01-19T06:02:27;4.40;99.90
1411;DHT22;700;51.906;8.404;2023-01-19T06:07:29;4.50;99.90
1411;DHT22;700;51.906;8.404;2023-01-19T06:12:31;3.90;99.90
1411;DHT22;700;51.906;8.404;2023-01-19T06:17:34;3.80;99.90
1411;DHT22;700;51.906;8.404;2023-01-19T06:22:35;3.70;99.90
1411;DHT22;700;51.906;8.404;2023-01-19T06:27:36;3.50;99.90
1411;DHT22;700;51.906;8.404;2023-01-19T06:32:41;3.50;99.90
1411;DHT22;700;51.906;8.404;2023-01-19T06:37:42;3.20;99.90
1411;DHT22;700;51.906;8.404;2023-01-19T06:42:47;3.10;99.90
1411;DHT22;700;51.906;8.404;2023-01-19T06:47:53;3.30;99.90
1411;DHT22;700;51.906;8.404;2023-01-19T06:52:56;3.00;99.90
1411;DHT22;700;51.906;8.404;2023-01-19T06:57:57;3.10;99.90
1411;DHT22;700;51.906;8.404;2023-01-19T07:02:58;3.10;99.90
1411;DHT22;700;51.906;8.404;2023-01-19T07:08:02;3.20;99.90
1411;DHT22;700;51.906;8.404;2023-01-19T07:13:03;3.10;99.90
1411;DHT22;700;51.906;8.404;2023-01-19T07:18:04;3.20;99.90
1411;DHT22;700;51.906;8.404;2023-01-19T07:23:09;3.20;99.90
1411;DHT22;700;51.906;8.404;2023-01-19T07:28:12;3.30;99.90
1411;DHT22;700;51.906;8.404;2023-01-19T07:33:17;3.50;99.90
1411;DHT22;700;51.906;8.404;2023-01-19T07:38:18;3.30;99.90
1411;DHT22;700;51.906;8.404;2023-01-19T07:43:19;3.40;99.90
1411;DHT22;700;51.906;8.404;2023-01-19T07:48:24;3.50;99.90
1411;DHT22;700;51.906;8.404;2023-01-19T07:53:28;3.50;99.90
1411;DHT22;700;51.906;8.404;2023-01-19T07:58:28;3.50;99.90
1411;DHT22;700;51.906;8.404;2023-01-19T08:03:29;3.50;99.90
1411;DHT22;700;51.906;8.404;2023-01-19T08:08:31;3.80;99.90
1411;DHT22;700;51.906;8.404;2023-01-19T08:13:31;3.90;99.90
1411;DHT22;700;51.906;8.404;2023-01-19T08:18:34;4.00;99.90
1411;DHT22;700;51.906;8.404;2023-01-19T08:23:35;4.30;99.90
1411;DHT22;700;51.906;8.404;2023-01-19T08:28:35;4.10;99.90
1411;DHT22;700;51.906;8.404;2023-01-19T08:33:36;4.10;99.90
1411;DHT22;700;51.906;8.404;2023-01-19T08:38:37;4.00;99.90
1411;DHT22;700;51.906;8.404;2023-01-19T08:43:40;3.70;99.90
1411;DHT22;700;51.906;8.404;2023-01-19T08:48:41;3.90;99.90
1411;DHT22;700;51.906;8.404;2023-01-19T08:53:43;4.10;99.90
1411;DHT22;700;51.906;8.404;2023-01-19T08:58:44;4.00;99.90
1411;DHT22;700;51.906;8.404;2023-01-19T09:03:48;4.20;99.90
1411;DHT22;700;51.906;8.404;2023-01-19T09:08:48;4.30;99.90
1411;DHT22;700;51.906;8.404;2023-01-19T09:13:49;4.60;99.90
1411;DHT22;700;51.906;8.404;2023-01-19T09:18:49;4.50;99.90
1411;DHT22;700;51.906;8.404;2023-01-19T09:23:53;4.70;99.90
1411;DHT22;700;51.906;8.404;2023-01-19T09:28:56;4.80;99.90
1411;DHT22;700;51.906;8.404;2023-01-19T09:33:57;4.90;99.90
1411;DHT22;700;51.906;8.404;2023-01-19T09:38:57;5.20;99.90
1411;DHT22;700;51.906;8.404;2023-01-19T09:44:07;5.30;99.90
1411;DHT22;700;51.906;8.404;2023-01-19T09:59:28;5.90;99.90
1411;DHT22;700;51.906;8.404;2023-01-19T10:04:43;5.90;99.90
1411;DHT22;700;51.906;8.404;2023-01-19T10:20:49;5.50;99.90
1411;DHT22;700;51.906;8.404;2023-01-19T10:25:57;5.60;99.90
1411;DHT22;700;51.906;8.404;2023-01-19T10:30:59;5.90;99.90
1411;DHT22;700;51.906;8.404;2023-01-19T10:41:50;5.80;99.90
1411;DHT22;700;51.906;8.404;2023-01-19T10:46:53;6.00;99.90
1411;DHT22;700;51.906;8.404;2023-01-19T10:51:56;5.80;99.90
1411;DHT22;700;51.906;8.404;2023-01-19T10:57:01;5.90;99.90
1411;DHT22;700;51.906;8.404;2023-01-19T11:07:32;6.10;99.90
1411;DHT22;700;51.906;8.404;2023-01-19T11:18:04;6.40;99.90
1411;DHT22;700;51.906;8.404;2023-01-19T11:23:28;6.50;99.90
1411;DHT22;700;51.906;8.404;2023-01-19T11:28:39;6.60;99.90
1411;DHT22;700;51.906;8.404;2023-01-19T11:33:53;6.70;99.90
1411;DHT22;700;51.906;8.404;2023-01-19T11:38:58;6.70;99.90
1411;DHT22;700;51.906;8.404;2023-01-19T11:44:21;6.80;99.90
1411;DHT22;700;51.906;8.404;2023-01-19T12:06:00;6.70;99.90
1411;DHT22;700;51.906;8.404;2023-01-19T12:11:04;6.60;99.90
1411;DHT22;700;51.906;8.404;2023-01-19T12:16:06;6.80;99.90
1411;DHT22;700;51.906;8.404;2023-01-19T12:21:12;7.00;99.90
1411;DHT22;700;51.906;8.404;2023-01-19T12:26:27;7.00;99.90
1411;DHT22;700;51.906;8.404;2023-01-19T12:31:27;7.10;99.90
1411;DHT22;700;51.906;8.404;2023-01-19T12:41:38;7.60;99.90
1411;DHT22;700;51.906;8.404;2023-01-19T12:51:54;7.70;99.90
1411;DHT22;700;51.906;8.404;2023-01-19T12:57:05;8.00;99.90
1411;DHT22;700;51.906;8.404;2023-01-19T13:07:20;7.70;99.90
1411;DHT22;700;51.906;8.404;2023-01-19T13:12:26;7.90;99.90
1411;DHT22;700;51.906;8.404;2023-01-19T13:17:48;7.80;99.90
1411;DHT22;700;51.906;8.404;2023-01-19T13:23:16;7.80;99.90
1411;DHT22;700;51.906;8.404;2023-01-19T13:28:13;7.70;99.90
1411;DHT22;700;51.906;8.404;2023-01-19T13:33:20;7.80;99.90
1411;DHT22;700;51.906;8.404;2023-01-19T13:38:22;8.20;99.90
1411;DHT22;700;51.906;8.404;2023-01-19T13:43:27;8.40;99.90
1411;DHT22;700;51.906;8.404;2023-01-19T13:48:30;8.30;99.90
1411;DHT22;700;51.906;8.404;2023-01-19T13:53:33;8.10;99.90
1411;DHT22;700;51.906;8.404;2023-01-19T13:58:35;7.80;99.90
1411;DHT22;700;51.906;8.404;2023-01-19T14:03:39;7.50;99.90
1411;DHT22;700;51.906;8.404;2023-01-19T14:08:42;7.20;99.90
1411;DHT22;700;51.906;8.404;2023-01-19T14:13:44;7.30;99.90
1411;DHT22;700;51.906;8.404;2023-01-19T14:18:45;7.30;99.90
1411;DHT22;700;51.906;8.404;2023-01-19T14:24:18;7.00;99.90
1411;DHT22;700;51.906;8.404;2023-01-19T14:29:27;7.30;99.90
1411;DHT22;700;51.906;8.404;2023-01-19T14:34:36;7.10;99.90
1411;DHT22;700;51.906;8.404;2023-01-19T14:39:53;6.90;99.90
1411;DHT22;700;51.906;8.404;2023-01-19T14:44:55;7.00;99.90
1411;DHT22;700;51.906;8.404;2023-01-19T14:55:19;7.20;99.90
1411;DHT22;700;51.906;8.404;2023-01-19T15:00:20;7.20;99.90
1411;DHT22;700;51.906;8.404;2023-01-19T15:05:22;7.00;99.90
1411;DHT22;700;51.906;8.404;2023-01-19T15:10:23;6.70;99.90
1411;DHT22;700;51.906;8.404;2023-01-19T15:15:32;6.60;99.90
1411;DHT22;700;51.906;8.404;2023-01-19T15:20:35;6.50;99.90
1411;DHT22;700;51.906;8.404;2023-01-19T15:25:36;6.40;99.90
1411;DHT22;700;51.906;8.404;2023-01-19T15:30:38;6.40;99.90
1411;DHT22;700;51.906;8.404;2023-01-19T15:35:39;6.30;99.90
1411;DHT22;700;51.906;8.404;2023-01-19T15:40:42;6.30;99.90
1411;DHT22;700;51.906;8.404;2023-01-19T15:45:47;6.40;99.90
1411;DHT22;700;51.906;8.404;2023-01-19T15:50:49;6.50;99.90
1411;DHT22;700;51.906;8.404;2023-01-19T15:55:51;6.40;99.90
1411;DHT22;700;51.906;8.404;2023-01-19T16:00:56;6.20;99.90
1411;DHT22;700;51.906;8.404;2023-01-19T16:06:02;6.40;99.90
1411;DHT22;700;51.906;8.404;2023-01-19T16:11:14;6.10;99.90
1411;DHT22;700;51.906;8.404;2023-01-19T16:16:21;6.10;99.90
1411;DHT22;700;51.906;8.404;2023-01-19T16:21:23;5.90;99.90
1411;DHT22;700;51.906;8.404;2023-01-19T16:26:33;5.70;99.90
1411;DHT22;700;51.906;8.404;2023-01-19T16:31:35;5.40;99.90
1411;DHT22;700;51.906;8.404;2023-01-19T16:36:40;5.30;99.90
1411;DHT22;700;51.906;8.404;2023-01-19T16:41:42;5.30;99.90
1411;DHT22;700;51.906;8.404;2023-01-19T16:46:44;5.00;99.90
1411;DHT22;700;51.906;8.404;2023-01-19T16:51:45;5.00;99.90
1411;DHT22;700;51.906;8.404;2023-01-19T16:56:48;5.10;99.90
1411;DHT22;700;51.906;8.404;2023-01-19T17:01:49;4.90;99.90
1411;DHT22;700;51.906;8.404;2023-01-19T17:06:51;5.10;99.90
1411;DHT22;700;51.906;8.404;2023-01-19T17:11:54;5.00;99.90
1411;DHT22;700;51.906;8.404;2023-01-19T17:16:54;5.10;99.90
1411;DHT22;700;51.906;8.404;2023-01-19T17:21:57;5.30;99.90
1411;DHT22;700;51.906;8.404;2023-01-19T17:26:58;5.20;99.90
1411;DHT22;700;51.906;8.404;2023-01-19T17:32:04;5.20;99.90
1411;DHT22;700;51.906;8.404;2023-01-19T17:37:07;5.30;99.90
1411;DHT22;700;51.906;8.404;2023-01-19T17:42:08;5.00;99.90
1411;DHT22;700;51.906;8.404;2023-01-19T17:47:09;5.00;99.90
1411;DHT22;700;51.906;8.404;2023-01-19T17:52:10;5.00;99.90
1411;DHT22;700;51.906;8.404;2023-01-19T17:57:10;5.20;99.90
1411;DHT22;700;51.906;8.404;2023-01-19T18:02:15;5.00;99.90
1411;DHT22;700;51.906;8.404;2023-01-19T18:07:16;4.70;99.90
1411;DHT22;700;51.906;8.404;2023-01-19T18:12:17;4.40;99.90
1411;DHT22;700;51.906;8.404;2023-01-19T18:17:19;4.50;99.90
1411;DHT22;700;51.906;8.404;2023-01-19T18:22:24;4.00;99.90
1411;DHT22;700;51.906;8.404;2023-01-19T18:27:24;4.00;99.90
1411;DHT22;700;51.906;8.404;2023-01-19T18:32:25;4.00;99.90
1411;DHT22;700;51.906;8.404;2023-01-19T18:37:26;4.00;99.90
1411;DHT22;700;51.906;8.404;2023-01-19T18:42:26;4.20;99.90
1411;DHT22;700;51.906;8.404;2023-01-19T18:47:28;4.20;99.90
1411;DHT22;700;51.906;8.404;2023-01-19T18:52:29;4.20;99.90
1411;DHT22;700;51.906;8.404;2023-01-19T18:57:33;4.30;99.90
1411;DHT22;700;51.906;8.404;2023-01-19T19:02:36;4.20;99.90
1411;DHT22;700;51.906;8.404;2023-01-19T19:07:42;4.00;99.90
1411;DHT22;700;51.906;8.404;2023-01-19T19:12:42;4.10;99.90
1411;DHT22;700;51.906;8.404;2023-01-19T19:17:46;4.20;99.90
1411;DHT22;700;51.906;8.404;2023-01-19T19:22:46;4.30;99.90
1411;DHT22;700;51.906;8.404;2023-01-19T19:27:53;4.50;99.90
1411;DHT22;700;51.906;8.404;2023-01-19T19:32:56;4.30;99.90
1411;DHT22;700;51.906;8.404;2023-01-19T19:38:02;4.00;99.90
1411;DHT22;700;51.906;8.404;2023-01-19T19:43:07;4.00;99.90
1411;DHT22;700;51.906;8.404;2023-01-19T19:48:08;3.90;99.90
1411;DHT22;700;51.906;8.404;2023-01-19T19:53:09;4.00;99.90
1411;DHT22;700;51.906;8.404;2023-01-19T19:58:09;3.80;99.90
1411;DHT22;700;51.906;8.404;2023-01-19T20:03:10;3.80;99.90
1411;DHT22;700;51.906;8.404;2023-01-19T20:08:13;3.70;99.90
1411;DHT22;700;51.906;8.404;2023-01-19T20:13:13;3.70;99.90
1411;DHT22;700;51.906;8.404;2023-01-19T20:18:19;3.90;99.90
1411;DHT22;700;51.906;8.404;2023-01-19T20:23:20;4.00;99.90
1411;DHT22;700;51.906;8.404;2023-01-19T20:28:23;4.10;99.90
1411;DHT22;700;51.906;8.404;2023-01-19T20:33:24;4.30;99.90
1411;DHT22;700;51.906;8.404;2023-01-19T20:38:25;4.20;99.90
1411;DHT22;700;51.906;8.404;2023-01-19T20:43:25;4.50;99.90
1411;DHT22;700;51.906;8.404;2023-01-19T20:48:28;4.50;99.90
1411;DHT22;700;51.906;8.404;2023-01-19T20:53:30;4.70;99.90
1411;DHT22;700;51.906;8.404;2023-01-19T20:58:31;4.70;99.90
1411;DHT22;700;51.906;8.404;2023-01-19T21:03:31;4.70;99.90
1411;DHT22;700;51.906;8.404;2023-01-19T21:08:36;4.70;99.90
1411;DHT22;700;51.906;8.404;2023-01-19T21:13:41;4.80;99.90
1411;DHT22;700;51.906;8.404;2023-01-19T21:18:44;4.80;99.90
1411;DHT22;700;51.906;8.404;2023-01-19T21:23:45;4.70;99.90
1411;DHT22;700;51.906;8.404;2023-01-19T21:28:48;4.50;99.90
1411;DHT22;700;51.906;8.404;2023-01-19T21:33:52;4.80;99.90
1411;DHT22;700;51.906;8.404;2023-01-19T21:38:53;4.90;99.90
1411;DHT22;700;51.906;8.404;2023-01-19T21:44:00;5.10;99.90
1411;DHT22;700;51.906;8.404;2023-01-19T21:49:03;5.00;99.90
1411;DHT22;700;51.906;8.404;2023-01-19T21:54:05;5.30;99.90
1411;DHT22;700;51.906;8.404;2023-01-19T21:59:06;5.40;99.90
1411;DHT22;700;51.906;8.404;2023-01-19T22:04:06;5.40;99.90
1411;DHT22;700;51.906;8.404;2023-01-19T22:09:07;5.50;99.90
1411;DHT22;700;51.906;8.404;2023-01-19T22:14:08;5.30;99.90
1411;DHT22;700;51.906;8.404;2023-01-19T22:19:10;5.40;99.90
1411;DHT22;700;51.906;8.404;2023-01-19T22:24:14;5.10;99.90
1411;DHT22;700;51.906;8.404;2023-01-19T22:29:19;5.00;99.90
1411;DHT22;700;51.906;8.404;2023-01-19T22:34:25;5.10;99.90
1411;DHT22;700;51.906;8.404;2023-01-19T22:39:25;4.90;99.90
1411;DHT22;700;51.906;8.404;2023-01-19T22:44:26;4.60;99.90
1411;DHT22;700;51.906;8.404;2023-01-19T22:49:27;4.70;99.90
1411;DHT22;700;51.906;8.404;2023-01-19T22:54:30;4.60;99.90
1411;DHT22;700;51.906;8.404;2023-01-19T22:59:31;4.50;99.90
1411;DHT22;700;51.906;8.404;2023-01-19T23:04:32;4.50;99.90
1411;DHT22;700;51.906;8.404;2023-01-19T23:09:35;4.60;99.90
1411;DHT22;700;51.906;8.404;2023-01-19T23:14:36;4.80;99.90
1411;DHT22;700;51.906;8.404;2023-01-19T23:19:37;4.60;99.90
1411;DHT22;700;51.906;8.404;2023-01-19T23:24:37;4.20;99.90
1411;DHT22;700;51.906;8.404;2023-01-19T23:29:38;4.30;99.90
1411;DHT22;700;51.906;8.404;2023-01-19T23:34:41;4.30;99.90
1411;DHT22;700;51.906;8.404;2023-01-19T23:39:44;4.30;99.90
1411;DHT22;700;51.906;8.404;2023-01-19T23:44:47;4.70;99.90
1411;DHT22;700;51.906;8.404;2023-01-19T23:49:48;4.50;99.90
1411;DHT22;700;51.906;8.404;2023-01-19T23:54:49;4.50;99.90
1411;DHT22;700;51.906;8.404;2023-01-19T23:59:52;4.70;99.90
